createdAt,value
2023-05-05T00:00:23.688Z,160.54
2023-05-05T00:01:23.734Z,158.84
2023-05-05T00:02:23.832Z,159.24
2023-05-05T00:03:24.042Z,159.99
2023-05-05T00:04:23.955Z,159.48
2023-05-05T00:05:23.987Z,159.73
2023-05-05T00:06:24.043Z,161.31
2023-05-05T00:07:24.119Z,160.38
2023-05-05T00:08:24.178Z,159.85
2023-05-05T00:09:24.258Z,160.67
2023-05-05T00:10:24.306Z,159.06
2023-05-05T00:11:24.359Z,159.35
2023-05-05T00:12:24.435Z,159.33
2023-05-05T00:13:24.486Z,160.68
2023-05-05T00:14:24.542Z,159.30
2023-05-05T00:15:24.604Z,158.28
2023-05-05T00:16:24.703Z,158.90
2023-05-05T00:17:24.774Z,160.28
2023-05-05T00:18:24.829Z,158.96
2023-05-05T00:19:24.917Z,159.03
2023-05-05T00:20:24.943Z,159.11
2023-05-05T00:21:25.006Z,157.40
2023-05-05T00:22:25.097Z,157.81
2023-05-05T00:23:25.218Z,157.24
2023-05-05T00:24:25.239Z,156.65
2023-05-05T00:25:25.289Z,157.89
2023-05-05T00:26:25.379Z,158.91
2023-05-05T00:27:25.444Z,158.26
2023-05-05T00:28:25.522Z,158.10
2023-05-05T00:29:25.585Z,159.93
2023-05-05T00:30:25.667Z,158.74
2023-05-05T00:31:25.751Z,158.85
2023-05-05T00:32:25.827Z,159.08
2023-05-05T00:33:25.873Z,158.13
2023-05-05T00:34:25.945Z,158.60
2023-05-05T00:35:25.990Z,158.37
2023-05-05T00:36:26.077Z,158.84
2023-05-05T00:37:26.139Z,158.04
2023-05-05T00:38:26.202Z,158.79
2023-05-05T00:39:26.284Z,159.33
2023-05-05T00:40:26.349Z,157.82
2023-05-05T00:41:26.388Z,158.75
2023-05-05T00:42:26.466Z,158.51
2023-05-05T00:43:26.529Z,158.46
2023-05-05T00:44:26.623Z,158.32
2023-05-05T00:45:26.670Z,158.47
2023-05-05T00:46:26.798Z,159.40
2023-05-05T00:47:26.864Z,157.72
2023-05-05T00:48:26.863Z,158.60
2023-05-05T00:49:26.975Z,158.17
2023-05-05T00:50:27.021Z,159.24
2023-05-05T00:51:27.085Z,157.00
2023-05-05T00:52:27.160Z,157.65
2023-05-05T00:53:27.222Z,158.86
2023-05-05T00:54:27.292Z,158.42
2023-05-05T00:55:27.350Z,157.36
2023-05-05T00:56:27.486Z,157.99
2023-05-05T00:57:27.512Z,158.21
2023-05-05T00:58:27.521Z,157.06
2023-05-05T00:59:27.605Z,156.75
2023-05-05T01:00:27.677Z,155.76
2023-05-05T01:01:27.800Z,156.26
2023-05-05T01:02:27.837Z,155.59
2023-05-05T01:03:27.973Z,155.53
2023-05-05T01:04:27.937Z,155.70
2023-05-05T01:05:28.004Z,154.70
2023-05-05T01:06:28.072Z,154.27
2023-05-05T01:07:28.117Z,154.70
2023-05-05T01:08:28.175Z,154.22
2023-05-05T01:09:28.253Z,155.04
2023-05-05T01:10:28.323Z,154.06
2023-05-05T01:11:28.375Z,154.60
2023-05-05T01:12:28.465Z,154.59
2023-05-05T01:13:28.538Z,154.62
2023-05-05T01:14:28.581Z,154.05
2023-05-05T01:15:28.707Z,154.29
2023-05-05T01:16:28.769Z,153.63
2023-05-05T01:17:28.807Z,153.83
2023-05-05T01:18:28.852Z,153.24
2023-05-05T01:19:28.913Z,154.01
2023-05-05T01:20:28.964Z,152.74
2023-05-05T01:21:29.042Z,152.51
2023-05-05T01:22:29.104Z,153.65
2023-05-05T01:23:29.163Z,152.49
2023-05-05T01:24:29.214Z,154.64
2023-05-05T01:25:29.287Z,153.84
2023-05-05T01:26:29.343Z,151.81
2023-05-05T01:27:29.348Z,151.90
2023-05-05T01:28:29.361Z,152.01
2023-05-05T01:29:29.344Z,152.01
2023-05-05T01:30:29.327Z,152.36
2023-05-05T01:31:29.348Z,152.52
2023-05-05T01:32:29.397Z,152.34
2023-05-05T01:33:29.328Z,151.84
2023-05-05T01:34:29.338Z,150.95
2023-05-05T01:35:29.364Z,150.24
2023-05-05T01:36:29.340Z,150.29
2023-05-05T01:37:29.402Z,150.71
2023-05-05T01:38:29.462Z,149.98
2023-05-05T01:39:29.527Z,150.28
2023-05-05T01:40:29.578Z,149.88
2023-05-05T01:41:29.670Z,149.14
2023-05-05T01:42:29.639Z,149.24
2023-05-05T01:43:29.638Z,149.48
2023-05-05T01:44:29.660Z,149.54
2023-05-05T01:45:29.664Z,149.56
2023-05-05T01:46:29.642Z,149.25
2023-05-05T01:47:29.698Z,149.67
2023-05-05T01:48:29.651Z,149.77
2023-05-05T01:49:29.661Z,150.13
2023-05-05T01:50:29.675Z,149.44
2023-05-05T01:51:29.716Z,149.52
2023-05-05T01:52:29.660Z,149.57
2023-05-05T01:53:29.670Z,149.50
2023-05-05T01:54:29.647Z,149.66
2023-05-05T01:55:29.669Z,149.53
2023-05-05T01:56:29.667Z,149.72
2023-05-05T01:57:29.661Z,150.08
2023-05-05T01:58:29.659Z,151.53
2023-05-05T01:59:29.660Z,150.89
2023-05-05T02:00:29.659Z,150.26
2023-05-05T02:01:29.705Z,149.90
2023-05-05T02:02:29.714Z,149.50
2023-05-05T02:03:29.688Z,149.85
2023-05-05T02:04:29.701Z,149.43
2023-05-05T02:05:29.759Z,149.30
2023-05-05T02:06:29.818Z,149.28
2023-05-05T02:07:29.879Z,148.72
2023-05-05T02:08:29.958Z,148.17
2023-05-05T02:09:30.022Z,148.51
2023-05-05T02:10:30.088Z,147.00
2023-05-05T02:11:30.168Z,147.56
2023-05-05T02:12:30.248Z,148.64
2023-05-05T02:13:30.328Z,148.66
2023-05-05T02:14:30.380Z,148.92
2023-05-05T02:15:30.493Z,148.80
2023-05-05T02:16:30.505Z,147.81
2023-05-05T02:17:30.622Z,148.61
2023-05-05T02:18:30.660Z,146.99
2023-05-05T02:19:30.717Z,147.52
2023-05-05T02:20:30.790Z,146.72
2023-05-05T02:21:30.862Z,146.89
2023-05-05T02:22:30.932Z,148.31
2023-05-05T02:23:31.019Z,146.69
2023-05-05T02:24:31.031Z,145.55
2023-05-05T02:25:31.107Z,145.92
2023-05-05T02:26:31.171Z,145.57
2023-05-05T02:27:31.288Z,147.38
2023-05-05T02:28:31.332Z,144.99
2023-05-05T02:29:31.383Z,144.12
2023-05-05T02:30:31.433Z,145.74
2023-05-05T02:31:31.557Z,142.59
2023-05-05T02:32:31.751Z,144.75
2023-05-05T02:33:31.634Z,145.14
2023-05-05T02:34:31.728Z,145.18
2023-05-05T02:35:31.677Z,145.22
2023-05-05T02:36:31.636Z,145.35
2023-05-05T02:37:31.729Z,144.84
2023-05-05T02:38:31.705Z,145.18
2023-05-05T02:39:31.699Z,144.43
2023-05-05T02:40:31.722Z,143.45
2023-05-05T02:41:31.638Z,143.97
2023-05-05T02:42:31.607Z,143.50
2023-05-05T02:43:31.609Z,143.72
2023-05-05T02:44:31.612Z,142.19
2023-05-05T02:45:31.623Z,141.57
2023-05-05T02:46:31.650Z,142.35
2023-05-05T02:47:31.740Z,142.14
2023-05-05T02:48:31.821Z,142.07
2023-05-05T02:49:31.814Z,142.16
2023-05-05T02:50:31.859Z,142.29
2023-05-05T02:51:31.739Z,142.57
2023-05-05T02:52:31.853Z,142.59
2023-05-05T02:53:31.802Z,142.79
2023-05-05T02:54:31.752Z,143.08
2023-05-05T02:55:31.727Z,143.38
2023-05-05T02:56:32.693Z,142.18
2023-05-05T02:57:31.736Z,141.82
2023-05-05T02:58:31.878Z,140.17
2023-05-05T02:59:31.884Z,140.01
2023-05-05T03:00:31.933Z,139.64
2023-05-05T03:01:32.034Z,139.81
2023-05-05T03:02:32.126Z,140.33
2023-05-05T03:03:32.131Z,139.58
2023-05-05T03:04:32.096Z,139.24
2023-05-05T03:05:32.163Z,139.18
2023-05-05T03:06:32.237Z,139.94
2023-05-05T03:07:32.315Z,140.37
2023-05-05T03:08:32.407Z,140.72
2023-05-05T03:09:32.390Z,140.79
2023-05-05T03:10:32.399Z,140.76
2023-05-05T03:11:32.384Z,139.87
2023-05-05T03:12:32.397Z,141.09
2023-05-05T03:13:32.390Z,139.12
2023-05-05T03:14:33.525Z,140.50
2023-05-05T03:15:32.401Z,140.57
2023-05-05T03:16:32.445Z,140.68
2023-05-05T03:17:32.469Z,140.59
2023-05-05T03:18:32.390Z,140.76
2023-05-05T03:19:32.397Z,140.93
2023-05-05T03:20:32.406Z,140.77
2023-05-05T03:21:32.399Z,140.29
2023-05-05T03:22:32.365Z,141.56
2023-05-05T03:23:32.377Z,141.01
2023-05-05T03:24:32.362Z,140.91
2023-05-05T03:25:32.368Z,139.81
2023-05-05T03:26:32.413Z,138.89
2023-05-05T03:27:32.463Z,140.01
2023-05-05T03:28:32.537Z,137.47
2023-05-05T03:29:32.605Z,140.06
2023-05-05T03:30:32.648Z,138.36
2023-05-05T03:31:32.762Z,138.81
2023-05-05T03:32:32.794Z,139.16
2023-05-05T03:33:33.198Z,139.93
2023-05-05T03:34:32.897Z,140.06
2023-05-05T03:35:33.000Z,140.61
2023-05-05T03:36:33.080Z,137.93
2023-05-05T03:37:33.142Z,139.05
2023-05-05T03:38:33.198Z,138.43
2023-05-05T03:39:33.202Z,138.79
2023-05-05T03:40:43.640Z,137.30
2023-05-05T03:41:34.237Z,137.40
2023-05-05T03:42:33.249Z,137.61
2023-05-05T03:43:33.270Z,138.26
2023-05-05T03:44:33.298Z,138.71
2023-05-05T03:45:33.286Z,140.10
2023-05-05T03:46:33.219Z,140.11
2023-05-05T03:47:33.268Z,140.45
2023-05-05T03:48:33.732Z,138.63
2023-05-05T03:49:33.221Z,138.22
2023-05-05T03:50:33.194Z,138.53
2023-05-05T03:51:33.259Z,140.02
2023-05-05T03:52:33.315Z,139.08
2023-05-05T03:53:33.350Z,138.59
2023-05-05T03:54:33.412Z,138.42
2023-05-05T03:55:33.439Z,138.32
2023-05-05T03:56:33.436Z,138.66
2023-05-05T03:57:33.458Z,138.83
2023-05-05T03:58:33.485Z,138.42
2023-05-05T03:59:33.546Z,137.75
2023-05-05T04:00:33.630Z,138.69
2023-05-05T04:01:33.653Z,138.57
2023-05-05T04:02:33.768Z,138.30
2023-05-05T04:03:33.854Z,138.29
2023-05-05T04:04:33.859Z,138.15
2023-05-05T04:05:33.907Z,138.46
2023-05-05T04:06:33.987Z,137.75
2023-05-05T04:07:33.967Z,137.83
2023-05-05T04:08:34.040Z,137.98
2023-05-05T04:09:33.973Z,138.02
2023-05-05T04:10:33.971Z,138.57
2023-05-05T04:11:33.950Z,139.80
2023-05-05T04:12:34.012Z,139.64
2023-05-05T04:13:33.948Z,139.82
2023-05-05T04:14:33.952Z,139.69
2023-05-05T04:15:33.949Z,138.96
2023-05-05T04:16:33.986Z,138.48
2023-05-05T04:17:34.075Z,139.58
2023-05-05T04:18:34.108Z,138.07
2023-05-05T04:19:34.163Z,138.41
2023-05-05T04:20:34.231Z,138.86
2023-05-05T04:21:34.293Z,140.45
2023-05-05T04:22:34.366Z,137.94
2023-05-05T04:23:34.450Z,138.33
2023-05-05T04:24:34.448Z,138.50
2023-05-05T04:25:34.522Z,138.26
2023-05-05T04:26:34.549Z,138.24
2023-05-05T04:27:34.585Z,138.44
2023-05-05T04:28:34.684Z,139.60
2023-05-05T04:29:34.694Z,139.39
2023-05-05T04:30:34.774Z,140.03
2023-05-05T04:31:34.862Z,140.52
2023-05-05T04:32:34.878Z,140.53
2023-05-05T04:33:35.007Z,139.35
2023-05-05T04:34:35.008Z,138.93
2023-05-05T04:35:35.095Z,139.88
2023-05-05T04:36:35.142Z,139.07
2023-05-05T04:37:35.223Z,139.70
2023-05-05T04:38:35.309Z,138.28
2023-05-05T04:39:35.262Z,138.43
2023-05-05T04:40:35.257Z,138.74
2023-05-05T04:41:35.262Z,138.64
2023-05-05T04:42:35.266Z,138.10
2023-05-05T04:43:35.269Z,138.33
2023-05-05T04:44:35.265Z,137.85
2023-05-05T04:45:35.274Z,137.80
2023-05-05T04:46:35.306Z,139.79
2023-05-05T04:47:35.293Z,140.68
2023-05-05T04:48:35.333Z,139.19
2023-05-05T04:49:35.404Z,138.79
2023-05-05T04:50:35.480Z,137.27
2023-05-05T04:51:35.560Z,139.22
2023-05-05T04:52:35.611Z,139.13
2023-05-05T04:53:35.685Z,139.05
2023-05-05T04:54:35.734Z,136.29
2023-05-05T04:55:35.800Z,138.23
2023-05-05T04:56:35.862Z,138.58
2023-05-05T04:57:35.930Z,138.71
2023-05-05T04:58:36.007Z,137.55
2023-05-05T04:59:36.082Z,138.98
2023-05-05T05:00:36.136Z,138.07
2023-05-05T05:01:38.275Z,138.78
2023-05-05T05:02:36.273Z,138.71
2023-05-05T05:03:36.473Z,138.69
2023-05-05T05:04:36.391Z,139.75
2023-05-05T05:05:36.464Z,137.81
2023-05-05T05:06:36.528Z,137.61
2023-05-05T05:07:36.599Z,136.12
2023-05-05T05:08:36.674Z,136.68
2023-05-05T05:09:36.703Z,137.31
2023-05-05T05:10:36.777Z,137.23
2023-05-05T05:11:36.841Z,137.93
2023-05-05T05:12:36.963Z,138.63
2023-05-05T05:13:36.959Z,137.61
2023-05-05T05:14:37.023Z,137.61
2023-05-05T05:15:37.092Z,138.08
2023-05-05T05:16:37.173Z,137.32
2023-05-05T05:17:37.207Z,138.50
2023-05-05T05:18:37.304Z,139.59
2023-05-05T05:19:37.303Z,139.12
2023-05-05T05:20:37.382Z,138.19
2023-05-05T05:21:37.443Z,139.56
2023-05-05T05:22:37.509Z,138.11
2023-05-05T05:23:37.592Z,138.31
2023-05-05T05:24:37.662Z,138.71
2023-05-05T05:25:37.686Z,137.81
2023-05-05T05:26:37.731Z,138.97
2023-05-05T05:27:37.728Z,139.03
2023-05-05T05:28:37.729Z,139.20
2023-05-05T05:29:37.723Z,139.81
2023-05-05T05:30:37.766Z,140.56
2023-05-05T05:31:37.935Z,142.60
2023-05-05T05:32:37.738Z,139.20
2023-05-05T05:33:37.710Z,139.99
2023-05-05T05:34:37.696Z,141.19
2023-05-05T05:35:37.702Z,144.72
2023-05-05T05:36:37.706Z,151.81
2023-05-05T05:37:37.841Z,159.72
2023-05-05T05:38:37.778Z,165.82
2023-05-05T05:39:37.817Z,177.07
2023-05-05T05:40:38.022Z,183.99
2023-05-05T05:41:37.919Z,187.38
2023-05-05T05:42:37.956Z,196.78
2023-05-05T05:43:38.025Z,199.74
2023-05-05T05:44:38.054Z,202.35
2023-05-05T05:45:38.163Z,214.14
2023-05-05T05:46:38.194Z,213.00
2023-05-05T05:47:38.190Z,225.09
2023-05-05T05:48:38.231Z,235.94
2023-05-05T05:49:38.235Z,234.15
2023-05-05T05:50:38.264Z,244.53
2023-05-05T05:51:38.241Z,244.63
2023-05-05T05:52:38.217Z,244.88
2023-05-05T05:53:38.213Z,245.95
2023-05-05T05:54:38.274Z,243.41
2023-05-05T05:55:38.218Z,233.50
2023-05-05T05:56:38.228Z,195.22
2023-05-05T05:57:38.240Z,189.85
2023-05-05T05:58:38.252Z,157.44
2023-05-05T05:59:38.333Z,137.08
2023-05-05T06:00:38.187Z,142.04
2023-05-05T06:01:38.192Z,136.59
2023-05-05T06:02:38.316Z,113.63
2023-05-05T06:03:38.273Z,92.95
2023-05-05T06:04:38.236Z,94.93
2023-05-05T06:05:38.168Z,103.17
2023-05-05T06:06:38.149Z,103.18
2023-05-05T06:07:38.199Z,104.34
2023-05-05T06:08:38.139Z,101.95
2023-05-05T06:09:38.145Z,84.29
2023-05-05T06:10:38.754Z,83.56
2023-05-05T06:11:38.272Z,107.91
2023-05-05T06:12:38.304Z,108.62
2023-05-05T06:13:38.247Z,112.47
2023-05-05T06:14:38.277Z,122.51
2023-05-05T06:15:38.293Z,138.92
2023-05-05T06:16:38.211Z,160.93
2023-05-05T06:17:38.227Z,172.61
2023-05-05T06:18:38.228Z,172.97
2023-05-05T06:19:38.207Z,174.92
2023-05-05T06:20:38.190Z,180.34
2023-05-05T06:21:38.229Z,192.18
2023-05-05T06:22:38.224Z,206.50
2023-05-05T06:23:38.157Z,220.72
2023-05-05T06:24:38.129Z,224.94
2023-05-05T06:25:38.134Z,236.03
2023-05-05T06:26:38.146Z,241.81
2023-05-05T06:27:38.095Z,246.31
2023-05-05T06:28:38.088Z,246.58
2023-05-05T06:29:38.060Z,249.52
2023-05-05T06:30:38.089Z,250.00
2023-05-05T06:31:38.133Z,250.00
2023-05-05T06:32:38.015Z,249.10
2023-05-05T06:33:37.985Z,249.85
2023-05-05T06:34:38.031Z,249.49
2023-05-05T06:35:37.945Z,250.00
2023-05-05T06:36:38.012Z,250.00
2023-05-05T06:37:38.048Z,249.58
2023-05-05T06:38:38.271Z,249.33
2023-05-05T06:39:38.041Z,250.10
2023-05-05T06:40:38.059Z,249.21
2023-05-05T06:41:38.081Z,250.00
2023-05-05T06:42:38.767Z,250.00
2023-05-05T06:43:38.095Z,249.13
2023-05-05T06:44:38.087Z,249.69
2023-05-05T06:45:38.107Z,249.95
2023-05-05T06:46:38.164Z,249.08
2023-05-05T06:47:38.240Z,248.94
2023-05-05T06:48:38.210Z,249.03
2023-05-05T06:49:38.321Z,248.79
2023-05-05T06:50:38.233Z,249.78
2023-05-05T06:51:38.549Z,250.00
2023-05-05T06:52:38.250Z,248.67
2023-05-05T06:53:38.439Z,249.61
2023-05-05T06:54:38.496Z,249.81
2023-05-05T06:55:38.335Z,249.55
2023-05-05T06:56:38.360Z,249.57
2023-05-05T06:57:38.324Z,248.94
2023-05-05T06:58:38.397Z,249.24
2023-05-05T06:59:38.346Z,248.80
2023-05-05T07:00:38.392Z,247.96
2023-05-05T07:01:38.416Z,245.07
2023-05-05T07:02:38.599Z,243.97
2023-05-05T07:03:38.476Z,242.49
2023-05-05T07:04:38.473Z,240.60
2023-05-05T07:05:38.575Z,239.14
2023-05-05T07:06:38.501Z,241.12
2023-05-05T07:07:38.627Z,237.80
2023-05-05T07:08:38.591Z,238.06
2023-05-05T07:09:38.611Z,237.88
2023-05-05T07:10:38.656Z,236.44
2023-05-05T07:11:38.724Z,235.49
2023-05-05T07:12:38.744Z,235.49
2023-05-05T07:13:38.744Z,233.00
2023-05-05T07:14:39.002Z,229.86
2023-05-05T07:15:38.667Z,226.85
2023-05-05T07:16:38.724Z,224.43
2023-05-05T07:17:38.692Z,221.92
2023-05-05T07:18:38.635Z,220.10
2023-05-05T07:19:38.649Z,218.83
2023-05-05T07:20:38.609Z,220.26
2023-05-05T07:21:38.642Z,220.66
2023-05-05T07:22:38.647Z,219.04
2023-05-05T07:23:38.718Z,220.81
2023-05-05T07:24:38.744Z,220.01
2023-05-05T07:25:38.835Z,218.90
2023-05-05T07:26:38.855Z,224.07
2023-05-05T07:27:38.903Z,224.33
2023-05-05T07:28:38.997Z,225.29
2023-05-05T07:29:39.045Z,229.37
2023-05-05T07:30:39.108Z,229.42
2023-05-05T07:31:39.199Z,228.47
2023-05-05T07:32:39.283Z,223.09
2023-05-05T07:33:39.313Z,221.91
2023-05-05T07:34:39.339Z,220.05
2023-05-05T07:35:39.566Z,218.25
2023-05-05T07:36:39.446Z,215.29
2023-05-05T07:37:39.678Z,219.98
2023-05-05T07:38:39.575Z,204.11
2023-05-05T07:39:39.635Z,175.98
2023-05-05T07:40:39.656Z,173.53
2023-05-05T07:41:39.728Z,154.74
2023-05-05T07:42:39.744Z,116.03
2023-05-05T07:43:40.532Z,80.42
2023-05-05T07:44:39.831Z,23.49
2023-05-05T07:45:39.955Z,14.87
2023-05-05T07:46:39.894Z,0.00
2023-05-05T07:47:39.986Z,0.00
2023-05-05T07:48:40.018Z,24.37
2023-05-05T07:50:59.112Z,25.00
2023-05-05T07:51:59.129Z,25.00
2023-05-05T07:53:10.929Z,25.00
2023-05-05T07:54:00.123Z,25.00
2023-05-05T07:54:59.101Z,25.00
2023-05-05T07:55:59.113Z,25.00
2023-05-05T07:56:59.113Z,25.00
2023-05-05T07:57:59.113Z,25.00
2023-05-05T07:58:59.171Z,86.14
2023-05-05T07:59:59.137Z,0.00
2023-05-05T08:00:59.117Z,15.06
2023-05-05T08:01:59.173Z,31.29
2023-05-05T08:02:59.182Z,0.00
2023-05-05T08:03:59.324Z,0.00
2023-05-05T08:04:59.807Z,1.21
2023-05-05T08:05:59.168Z,7.30
2023-05-05T08:06:59.128Z,12.31
2023-05-05T08:07:59.141Z,19.28
2023-05-05T08:08:59.282Z,13.68
2023-05-05T08:09:59.115Z,18.40
2023-05-05T08:10:59.122Z,39.34
2023-05-05T08:11:59.127Z,50.92
2023-05-05T08:12:59.185Z,26.66
2023-05-05T08:13:59.145Z,21.73
2023-05-05T08:14:59.179Z,26.37
2023-05-05T08:15:59.241Z,23.53
2023-05-05T08:16:59.280Z,25.41
2023-05-05T08:17:59.400Z,25.60
2023-05-05T08:18:59.330Z,12.22
2023-05-05T08:19:59.333Z,3.38
2023-05-05T08:20:59.358Z,0.00
2023-05-05T08:22:01.075Z,0.00
2023-05-05T08:22:59.365Z,0.00
2023-05-05T08:23:59.371Z,0.00
2023-05-05T08:24:59.416Z,0.00
2023-05-05T08:25:59.536Z,0.00
2023-05-05T08:26:59.380Z,0.00
2023-05-05T08:27:59.366Z,0.00
2023-05-05T08:28:59.410Z,35.56
2023-05-05T08:29:59.395Z,52.85
2023-05-05T08:30:59.470Z,68.80
2023-05-05T08:31:59.462Z,107.50
2023-05-05T08:32:59.624Z,69.52
2023-05-05T08:33:59.564Z,104.61
2023-05-05T08:34:59.600Z,135.68
2023-05-05T08:35:59.624Z,117.68
2023-05-05T08:36:59.638Z,206.75
2023-05-05T08:37:59.660Z,147.98
2023-05-05T08:38:59.676Z,188.00
2023-05-05T08:39:59.776Z,230.35
2023-05-05T08:40:59.829Z,201.87
2023-05-05T08:41:59.729Z,170.64
2023-05-05T08:42:59.757Z,127.88
2023-05-05T08:43:59.833Z,132.79
2023-05-05T08:44:59.826Z,167.58
2023-05-05T08:45:59.882Z,214.14
2023-05-05T08:46:59.939Z,228.72
2023-05-05T08:47:59.956Z,170.04
2023-05-05T08:48:59.955Z,138.16
2023-05-05T08:49:59.927Z,131.85
2023-05-05T08:51:01.336Z,146.84
2023-05-05T08:51:59.931Z,121.29
2023-05-05T08:52:59.986Z,208.68
2023-05-05T08:54:00.227Z,233.13
2023-05-05T08:54:59.992Z,247.72
2023-05-05T08:55:59.972Z,286.96
2023-05-05T08:56:59.967Z,381.63
2023-05-05T08:58:00.214Z,359.07
2023-05-05T08:59:00.008Z,312.23
2023-05-05T08:59:59.977Z,309.85
2023-05-05T09:01:00.093Z,248.59
2023-05-05T09:02:00.044Z,205.00
2023-05-05T09:03:00.087Z,248.03
2023-05-05T09:03:59.967Z,239.00
2023-05-05T09:05:00.288Z,256.88
2023-05-05T09:06:00.047Z,262.96
2023-05-05T09:07:00.167Z,251.25
2023-05-05T09:08:00.159Z,271.72
2023-05-05T09:09:00.226Z,263.98
2023-05-05T09:10:00.344Z,264.45
2023-05-05T09:11:00.442Z,264.94
2023-05-05T09:12:00.193Z,230.93
2023-05-05T09:13:00.325Z,209.17
2023-05-05T09:14:00.197Z,200.65
2023-05-05T09:15:00.210Z,213.50
2023-05-05T09:16:00.164Z,221.96
2023-05-05T09:17:00.283Z,222.30
2023-05-05T09:18:00.206Z,209.94
2023-05-05T09:19:00.215Z,188.51
2023-05-05T09:20:00.202Z,222.48
2023-05-05T09:21:00.193Z,217.85
2023-05-05T09:22:00.169Z,186.65
2023-05-05T09:23:00.249Z,183.12
2023-05-05T09:24:07.344Z,182.41
2023-05-05T09:25:01.151Z,182.61
2023-05-05T09:26:00.147Z,182.86
2023-05-05T09:27:00.145Z,185.65
2023-05-05T09:28:00.137Z,210.76
2023-05-05T09:29:00.248Z,256.10
2023-05-05T09:30:00.287Z,222.31
2023-05-05T09:31:00.173Z,222.79
2023-05-05T09:32:00.100Z,223.05
2023-05-05T09:33:00.199Z,216.30
2023-05-05T09:34:00.128Z,225.39
2023-05-05T09:35:00.140Z,208.63
2023-05-05T09:36:00.077Z,187.99
2023-05-05T09:37:00.073Z,232.08
2023-05-05T09:38:00.136Z,262.77
2023-05-05T09:39:00.219Z,252.04
2023-05-05T09:40:00.193Z,229.38
2023-05-05T09:41:00.212Z,229.61
2023-05-05T09:42:00.132Z,232.27
2023-05-05T09:43:00.198Z,231.03
2023-05-05T09:44:00.802Z,247.91
2023-05-05T09:45:00.396Z,254.64
2023-05-05T09:46:00.126Z,211.94
2023-05-05T09:47:00.101Z,201.41
2023-05-05T09:48:00.877Z,186.73
2023-05-05T09:49:00.067Z,169.47
2023-05-05T09:50:00.053Z,178.01
2023-05-05T09:51:00.059Z,215.48
2023-05-05T09:52:00.162Z,225.48
2023-05-05T09:53:00.172Z,246.08
2023-05-05T09:54:00.167Z,272.10
2023-05-05T09:55:00.233Z,291.21
2023-05-05T09:56:00.236Z,245.93
2023-05-05T09:57:00.847Z,228.47
2023-05-05T09:58:00.289Z,229.32
2023-05-05T09:59:00.377Z,231.76
2023-05-05T10:00:00.568Z,202.19
2023-05-05T10:01:00.483Z,184.52
2023-05-05T10:02:00.513Z,176.67
2023-05-05T10:03:00.545Z,207.93
2023-05-05T10:04:00.562Z,230.14
2023-05-05T10:05:02.457Z,253.75
2023-05-05T10:06:00.632Z,260.34
2023-05-05T10:07:00.660Z,271.04
2023-05-05T10:08:00.694Z,271.23
2023-05-05T10:09:00.749Z,263.71
2023-05-05T10:10:00.780Z,278.32
2023-05-05T10:11:00.778Z,266.18
2023-05-05T10:12:00.820Z,262.73
2023-05-05T10:13:00.810Z,256.09
2023-05-05T10:14:00.774Z,254.21
2023-05-05T10:15:00.852Z,239.28
2023-05-05T10:16:00.818Z,240.13
2023-05-05T10:17:00.883Z,245.64
2023-05-05T10:18:07.824Z,249.20
2023-05-05T10:19:02.215Z,247.40
2023-05-05T10:20:00.788Z,235.43
2023-05-05T10:21:00.758Z,250.29
2023-05-05T10:22:00.775Z,251.20
2023-05-05T10:23:00.724Z,257.65
2023-05-05T10:24:00.728Z,261.19
2023-05-05T10:25:00.688Z,254.78
2023-05-05T10:26:00.659Z,253.65
2023-05-05T10:27:00.656Z,250.00
2023-05-05T10:28:00.634Z,250.05
2023-05-05T10:29:00.634Z,246.89
2023-05-05T10:30:00.885Z,238.50
2023-05-05T10:31:00.602Z,240.11
2023-05-05T10:32:00.604Z,245.23
2023-05-05T10:34:00.704Z,243.60
2023-05-05T10:35:00.513Z,235.34
2023-05-05T10:36:00.540Z,244.63
2023-05-05T10:37:00.499Z,242.34
2023-05-05T10:38:00.457Z,249.39
2023-05-05T10:39:00.484Z,249.73
2023-05-05T10:40:00.479Z,241.60
2023-05-05T10:41:00.391Z,238.82
2023-05-05T10:42:00.435Z,234.65
2023-05-05T10:43:00.368Z,243.27
2023-05-05T10:44:02.889Z,250.78
2023-05-05T10:45:00.372Z,249.74
2023-05-05T10:46:00.841Z,250.00
2023-05-05T10:47:00.292Z,249.58
2023-05-05T10:48:00.304Z,248.51
2023-05-05T10:49:00.468Z,236.04
2023-05-05T10:50:00.334Z,234.81
2023-05-05T10:51:00.232Z,234.73
2023-05-05T10:52:00.197Z,215.26
2023-05-05T10:53:00.185Z,225.21
2023-05-05T10:54:00.224Z,232.83
2023-05-05T10:55:00.152Z,237.47
2023-05-05T10:56:00.170Z,244.18
2023-05-05T10:57:00.098Z,246.67
2023-05-05T10:58:00.137Z,248.28
2023-05-05T10:59:00.959Z,242.52
2023-05-05T11:00:00.096Z,241.53
2023-05-05T11:01:00.047Z,246.20
2023-05-05T11:02:01.862Z,250.21
2023-05-05T11:03:00.145Z,249.71
2023-05-05T11:03:59.980Z,250.00
2023-05-05T11:05:00.015Z,250.13
2023-05-05T11:05:59.923Z,249.37
2023-05-05T11:06:59.924Z,249.87
2023-05-05T11:08:00.009Z,249.64
2023-05-05T11:08:59.894Z,249.58
2023-05-05T11:09:59.993Z,249.68
2023-05-05T11:10:59.868Z,249.70
2023-05-05T11:11:59.828Z,250.18
2023-05-05T11:12:59.846Z,250.60
2023-05-05T11:13:59.804Z,252.05
2023-05-05T11:14:59.814Z,253.51
2023-05-05T11:15:59.794Z,250.50
2023-05-05T11:16:59.767Z,250.00
2023-05-05T11:17:59.797Z,249.22
2023-05-05T11:18:59.755Z,248.45
2023-05-05T11:19:59.817Z,244.95
2023-05-05T11:20:59.708Z,233.04
2023-05-05T11:21:59.711Z,218.36
2023-05-05T11:22:59.685Z,214.57
2023-05-05T11:23:59.655Z,212.34
2023-05-05T11:24:59.649Z,210.16
2023-05-05T11:25:59.618Z,207.54
2023-05-05T11:26:59.626Z,208.00
2023-05-05T11:27:59.683Z,206.60
2023-05-05T11:28:59.589Z,201.44
2023-05-05T11:29:59.663Z,202.98
2023-05-05T11:30:59.962Z,206.62
2023-05-05T11:31:59.785Z,210.73
2023-05-05T11:32:59.890Z,213.74
2023-05-05T11:33:59.838Z,215.28
2023-05-05T11:34:59.898Z,216.52
2023-05-05T11:35:59.932Z,217.79
2023-05-05T11:36:59.979Z,217.32
2023-05-05T11:38:00.034Z,218.07
2023-05-05T11:39:00.113Z,218.74
2023-05-05T11:40:00.200Z,220.52
2023-05-05T11:41:00.180Z,225.65
2023-05-05T11:42:00.257Z,224.87
2023-05-05T11:43:00.290Z,224.02
2023-05-05T11:44:00.351Z,224.56
2023-05-05T11:45:00.423Z,223.78
2023-05-05T11:46:00.476Z,220.65
2023-05-05T11:47:00.526Z,220.47
2023-05-05T11:48:00.590Z,222.04
2023-05-05T11:49:00.628Z,223.01
2023-05-05T11:50:00.680Z,222.84
2023-05-05T11:51:00.710Z,222.79
2023-05-05T11:52:00.774Z,221.02
2023-05-05T11:53:00.785Z,218.99
2023-05-05T11:54:00.725Z,217.31
2023-05-05T11:55:00.713Z,215.49
2023-05-05T11:56:00.688Z,214.81
2023-05-05T11:57:00.715Z,212.91
2023-05-05T11:58:00.705Z,212.81
2023-05-05T11:59:00.693Z,212.12
2023-05-05T12:00:00.700Z,210.12
2023-05-05T12:01:00.668Z,207.81
2023-05-05T12:02:00.665Z,206.91
2023-05-05T12:03:00.879Z,205.77
2023-05-05T12:04:00.828Z,206.17
2023-05-05T12:05:00.733Z,205.23
2023-05-05T12:06:00.663Z,203.85
2023-05-05T12:07:00.651Z,203.71
2023-05-05T12:08:00.645Z,203.03
2023-05-05T12:09:00.706Z,202.34
2023-05-05T12:10:00.665Z,201.80
2023-05-05T12:11:00.609Z,201.81
2023-05-05T12:12:00.589Z,199.88
2023-05-05T12:13:00.603Z,199.30
2023-05-05T12:14:00.575Z,198.75
2023-05-05T12:15:00.609Z,198.55
2023-05-05T12:16:00.592Z,197.13
2023-05-05T12:17:00.548Z,196.86
2023-05-05T12:18:02.778Z,196.58
2023-05-05T12:19:00.736Z,197.62
2023-05-05T12:20:00.710Z,198.11
2023-05-05T12:21:00.701Z,197.46
2023-05-05T12:22:00.725Z,196.91
2023-05-05T12:23:00.769Z,195.44
2023-05-05T12:24:00.684Z,195.84
2023-05-05T12:25:00.914Z,195.16
2023-05-05T12:26:00.697Z,195.08
2023-05-05T12:27:00.699Z,194.96
2023-05-05T12:28:00.664Z,194.55
2023-05-05T12:29:00.680Z,193.67
2023-05-05T12:30:00.662Z,194.30
2023-05-05T12:31:00.724Z,192.34
2023-05-05T12:32:00.816Z,192.12
2023-05-05T12:33:00.663Z,192.22